Flight Number: EUR1533 Duration: 1:30
Departure: Barra Airport (EGPR) at 08:15 Distance: 272 Nm
Arrival: Liverpool Airport (EGGP) at 09:45 Equipment: B1900D

Weather Information
404 Not Found

Not Found

The requested URL /data/observations/metar/decoded/EGPR.TXT was not found on this server.


Sunrise: 07:15 Sunset: 17:14 (UTC)

Liverpool Airport , United Kingdom (EGGP) 53-20N 002-51W Oct 17, 2018 - 11:50 PM EDT / 2018.10.18 0350 UTC
Wind: from the N (360 degrees) at 5 MPH (4 KT):0
Visibility: greater than 7 mile(s):0 Temperature: 46 F (8 C) Dew Point: 39 F (4 C) Relative Humidity: 75% Pressure (altimeter): 30.36 in. Hg (1028 hPa)
ob: EGGP 180350Z 36004KT CAVOK 08/04 Q1028 cycle: 4
Sunrise: 06:48 Sunset: 17:04 (UTC)

TAF:2018/10/17 18:09 TAF TAF EGGP 171657Z 1718/1818 35006KT 9999 FEW040 PROB30 1803/1809 9000

Previous Pireps for this route
Date Aircraft Flight time Fuel used Landing rate On time
2015-05-09B1900D01.391005-381Charter
2016-02-28B1900D01.12981-386Yes
2016-10-11B1900D01.121066-181No
2018-04-04B1900D1.341188-630Yes
(pireps marked green are flown by you)

Route map